Time;durP1;ratioP1;P1;durP2;ratioP2;P2;SDS_P1;SDS_P2;PMS_P1;PMS_P2;Temp;Humidity;BMP_temperature;BMP_pressure;BME280_temperature;BME280_humidity;BME280_pressure;Samples;Min_cycle;Max_cycle;Signal;HPM_P1;HPM_P2
2022/04/10 00:00:37;;;;;;;10.73;4.63;;;16.30;99.90;;;;;;5039560;28;20083;-75
2022/04/10 00:03:05;;;;;;;8.40;3.13;;;16.40;99.90;;;;;;5056142;28;20119;-77
2022/04/10 00:05:34;;;;;;;9.80;3.78;;;16.40;99.90;;;;;;5091564;28;20044;-76
2022/04/10 00:08:02;;;;;;;7.72;3.67;;;16.50;99.90;;;;;;5040048;28;20047;-76
2022/04/10 00:10:30;;;;;;;6.35;3.05;;;16.40;99.90;;;;;;5073328;28;20055;-76
2022/04/10 00:12:57;;;;;;;7.60;3.53;;;16.50;99.90;;;;;;5056461;28;20436;-76
2022/04/10 00:15:25;;;;;;;12.00;3.25;;;16.50;99.90;;;;;;5055845;28;20087;-75
2022/04/10 00:17:52;;;;;;;5.78;2.95;;;16.40;99.90;;;;;;5056738;28;20040;-76
2022/04/10 00:20:20;;;;;;;8.32;3.22;;;16.40;99.90;;;;;;5039520;28;20138;-76
2022/04/10 00:22:48;;;;;;;8.02;3.65;;;16.40;99.90;;;;;;5040218;28;20051;-76
2022/04/10 00:25:19;;;;;;;6.55;2.65;;;16.40;99.90;;;;;;5040296;28;20448;-76
2022/04/10 00:27:47;;;;;;;6.18;2.83;;;16.40;99.90;;;;;;5040197;28;20078;-76
2022/04/10 00:30:17;;;;;;;6.15;2.40;;;16.40;99.90;;;;;;5051833;28;20566;-76
2022/04/10 00:32:44;;;;;;;8.77;2.78;;;16.40;99.90;;;;;;5019638;28;20099;-76
2022/04/10 00:35:13;;;;;;;10.02;3.10;;;16.30;99.90;;;;;;5019889;28;20486;-76
2022/04/10 00:37:41;;;;;;;6.00;3.00;;;16.30;99.90;;;;;;5036299;28;20048;-75
2022/04/10 00:40:09;;;;;;;10.15;3.88;;;16.20;99.90;;;;;;5052107;28;20115;-75
2022/04/10 00:42:40;;;;;;;8.45;3.08;;;16.20;99.90;;;;;;5051582;28;20086;-75
2022/04/10 00:45:09;;;;;;;10.10;3.42;;;16.00;99.90;;;;;;5035612;28;20071;-75
2022/04/10 00:47:37;;;;;;;14.65;3.85;;;16.00;99.90;;;;;;5052421;28;20133;-75
2022/04/10 00:50:07;;;;;;;5.85;3.17;;;16.10;99.90;;;;;;5065246;28;20059;-75
2022/04/10 00:52:36;;;;;;;6.95;2.65;;;16.10;99.90;;;;;;5071970;28;20059;-75
2022/04/10 00:55:05;;;;;;;8.25;3.50;;;16.20;99.90;;;;;;5072476;28;20044;-76
2022/04/10 00:57:34;;;;;;;11.95;5.50;;;16.20;99.90;;;;;;5055817;28;20055;-76
2022/04/10 01:00:05;;;;;;;12.82;4.40;;;16.10;99.90;;;;;;5090266;28;20055;-76
2022/04/10 01:02:33;;;;;;;8.75;3.22;;;16.20;99.90;;;;;;5055284;28;20486;-75
2022/04/10 01:05:03;;;;;;;9.43;3.40;;;16.20;99.90;;;;;;5055669;28;20076;-75
2022/04/10 01:07:31;;;;;;;7.15;3.63;;;16.20;99.90;;;;;;5039302;28;20047;-76
2022/04/10 01:09:58;;;;;;;6.72;2.90;;;16.20;99.90;;;;;;5072353;28;20052;-76
2022/04/10 01:12:26;;;;;;;9.48;3.92;;;16.20;99.90;;;;;;5055751;28;20036;-75
2022/04/10 01:14:59;;;;;;;6.82;3.22;;;16.30;99.90;;;;;;5039983;28;20048;-75
2022/04/10 01:17:33;;;;;;;7.57;3.15;;;16.20;99.90;;;;;;5039460;28;20516;-76
2022/04/10 01:20:01;;;;;;;7.57;2.78;;;16.20;99.90;;;;;;5071756;28;20089;-75
2022/04/10 01:22:35;;;;;;;12.65;3.45;;;16.20;99.90;;;;;;5072097;28;20051;-76
2022/04/10 01:25:08;;;;;;;8.82;3.67;;;16.30;99.90;;;;;;5055646;28;20056;-76
2022/04/10 01:27:41;;;;;;;8.18;3.90;;;16.30;99.90;;;;;;5055917;28;20036;-75
2022/04/10 01:30:11;;;;;;;7.57;2.85;;;16.30;99.90;;;;;;5059490;28;20090;-75
2022/04/10 01:32:42;;;;;;;5.35;2.85;;;16.40;99.90;;;;;;5076102;28;20694;-74
2022/04/10 01:35:10;;;;;;;7.22;2.50;;;16.50;99.90;;;;;;5043168;28;20052;-74
2022/04/10 01:37:39;;;;;;;6.82;2.78;;;16.50;99.90;;;;;;5058878;28;20051;-75
2022/04/10 01:40:11;;;;;;;8.05;3.10;;;16.40;99.90;;;;;;5058769;28;20511;-75
2022/04/10 01:42:40;;;;;;;8.68;3.30;;;16.40;99.90;;;;;;5075841;28;20044;-75
2022/04/10 01:45:08;;;;;;;11.50;3.00;;;16.40;99.90;;;;;;5059307;28;20052;-74
2022/04/10 01:47:37;;;;;;;9.02;3.25;;;16.40;99.90;;;;;;5059168;28;20516;-75
2022/04/10 01:50:05;;;;;;;6.15;3.42;;;16.40;99.90;;;;;;5059088;28;20052;-75
2022/04/10 01:52:33;;;;;;;14.13;4.03;;;16.40;99.90;;;;;;5074969;28;20508;-75
2022/04/10 01:55:00;;;;;;;9.23;3.13;;;16.30;99.90;;;;;;5057770;28;20044;-74
2022/04/10 01:57:28;;;;;;;10.60;3.47;;;16.30;99.90;;;;;;5042660;28;20055;-75
2022/04/10 01:59:56;;;;;;;9.95;3.58;;;16.30;99.90;;;;;;5042375;28;20525;-74
2022/04/10 02:02:25;;;;;;;6.28;3.30;;;16.30;99.90;;;;;;5058984;28;20040;-75
2022/04/10 02:04:53;;;;;;;8.20;3.28;;;16.30;99.90;;;;;;5075251;28;20047;-75
2022/04/10 02:07:21;;;;;;;6.55;3.13;;;16.20;99.90;;;;;;5058747;28;20496;-75
2022/04/10 02:09:51;;;;;;;8.07;3.17;;;16.10;99.90;;;;;;5042001;28;20044;-75
2022/04/10 02:12:18;;;;;;;9.10;3.35;;;16.00;99.90;;;;;;5042410;28;20052;-75
2022/04/10 02:14:46;;;;;;;12.13;3.65;;;15.90;99.90;;;;;;5041739;28;20113;-75
2022/04/10 02:17:14;;;;;;;9.85;3.05;;;15.90;99.90;;;;;;5056581;28;20493;-75
2022/04/10 02:19:42;;;;;;;11.43;4.03;;;15.90;99.90;;;;;;5041939;28;20044;-75
2022/04/10 02:22:09;;;;;;;5.40;2.70;;;16.00;99.90;;;;;;5059178;28;20048;-75
2022/04/10 02:24:37;;;;;;;10.77;3.97;;;16.00;99.90;;;;;;5041400;28;20044;-75
2022/04/10 02:27:04;;;;;;;8.43;3.00;;;16.00;99.90;;;;;;5058812;28;20070;-75
2022/04/10 02:29:32;;;;;;;11.32;3.35;;;16.00;99.90;;;;;;5041615;28;20052;-75
2022/04/10 02:32:00;;;;;;;7.45;3.40;;;15.90;99.90;;;;;;5074822;28;20044;-76
2022/04/10 02:34:28;;;;;;;4.72;2.60;;;16.00;99.90;;;;;;5041381;28;20044;-75
2022/04/10 02:36:55;;;;;;;9.40;3.08;;;15.90;99.90;;;;;;5041306;28;20051;-75
2022/04/10 02:39:23;;;;;;;6.68;3.55;;;15.90;99.90;;;;;;5057564;28;20040;-75
2022/04/10 02:41:50;;;;;;;9.10;3.35;;;15.90;99.90;;;;;;5041454;28;20174;-75
2022/04/10 02:44:18;;;;;;;5.18;2.88;;;15.90;99.90;;;;;;5057833;28;20560;-75
2022/04/10 02:46:46;;;;;;;10.75;4.30;;;15.80;99.90;;;;;;5057599;28;20367;-75
2022/04/10 02:49:14;;;;;;;5.97;3.22;;;15.80;99.90;;;;;;5057748;28;20395;-75
2022/04/10 02:51:42;;;;;;;7.80;3.30;;;15.60;99.90;;;;;;5074902;28;20520;-75
2022/04/10 02:54:09;;;;;;;10.05;4.22;;;15.50;99.90;;;;;;5058473;28;20048;-75
2022/04/10 02:56:55;;;;;;;8.93;3.30;;;15.30;99.90;;;;;;5077575;28;20070;-75
2022/04/10 02:59:42;;;;;;;9.45;3.38;;;15.20;99.90;;;;;;5063561;28;20048;-75
2022/04/10 03:02:28;;;;;;;7.53;2.67;;;15.10;99.90;;;;;;5057246;28;20070;-75
2022/04/10 03:05:15;;;;;;;8.63;3.45;;;15.00;99.90;;;;;;5077221;28;20051;-76
2022/04/10 03:08:03;;;;;;;8.57;2.65;;;15.00;99.90;;;;;;5063587;28;20051;-75
2022/04/10 03:10:49;;;;;;;;;;;15.00;99.90;;;;;;5064018;28;20414;-75
2022/04/10 03:13:35;;;;;;;5.22;2.63;;;15.00;99.90;;;;;;5074916;28;19931;-75
2022/04/10 03:16:24;;;;;;;8.38;2.67;;;14.90;99.90;;;;;;5076911;28;20136;-75
2022/04/10 03:19:11;;;;;;;10.30;3.50;;;15.00;99.90;;;;;;5077190;28;20137;-75
2022/04/10 03:21:57;;;;;;;5.30;2.33;;;15.00;99.90;;;;;;5076674;28;20132;-75
2022/04/10 03:24:44;;;;;;;8.15;3.38;;;15.10;99.90;;;;;;5077376;28;20798;-75
2022/04/10 03:27:30;;;;;;;;;;;15.00;99.90;;;;;;5077348;28;20051;-75
2022/04/10 03:30:17;;;;;;;8.70;2.60;;;15.00;99.90;;;;;;5077238;28;19930;-75
2022/04/10 03:33:03;;;;;;;7.85;3.10;;;14.90;99.90;;;;;;5063194;28;20149;-75
2022/04/10 03:35:50;;;;;;;8.27;3.40;;;14.90;99.90;;;;;;5076779;28;20520;-76
2022/04/10 03:38:36;;;;;;;6.90;3.20;;;14.90;99.90;;;;;;5062589;28;20144;-75
2022/04/10 03:41:23;;;;;;;5.88;3.60;;;14.90;99.90;;;;;;5062330;28;20051;-75
2022/04/10 03:44:09;;;;;;;10.98;2.58;;;15.00;99.90;;;;;;5076577;28;20067;-75
2022/04/10 03:46:55;;;;;;;5.67;2.70;;;15.10;99.90;;;;;;5076436;28;20126;-75
2022/04/10 03:49:42;;;;;;;6.45;3.05;;;15.20;99.90;;;;;;5076321;28;20051;-76
2022/04/10 03:52:28;;;;;;;5.35;2.90;;;15.10;99.90;;;;;;5061682;28;20144;-75
2022/04/10 03:55:14;;;;;;;4.33;2.17;;;15.20;99.90;;;;;;5062750;28;20498;-75
2022/04/10 03:58:00;;;;;;;7.20;3.80;;;15.20;99.90;;;;;;5076200;28;20071;-75
2022/04/10 04:00:47;;;;;;;6.97;2.95;;;15.30;99.70;;;;;;5061929;28;20100;-75
2022/04/10 04:03:35;;;;;;;8.60;3.15;;;15.30;99.50;;;;;;5076060;28;20047;-75
2022/04/10 04:06:22;;;;;;;5.55;2.55;;;15.20;99.40;;;;;;5062217;28;20212;-75
2022/04/10 04:09:08;;;;;;;9.45;2.70;;;15.20;99.40;;;;;;5073413;28;20062;-75
2022/04/10 04:11:55;;;;;;;;;;;15.20;99.40;;;;;;5076719;28;20058;-75
2022/04/10 04:14:41;;;;;;;7.20;3.10;;;15.20;99.50;;;;;;5075774;28;19931;-76
2022/04/10 04:17:28;;;;;;;9.02;3.10;;;15.10;99.50;;;;;;5062063;28;20050;-75
2022/04/10 04:20:15;;;;;;;8.48;2.67;;;15.10;99.60;;;;;;5062390;28;20485;-75
2022/04/10 04:23:02;;;;;;;6.07;2.95;;;14.90;99.80;;;;;;5076190;28;20050;-75
2022/04/10 04:25:49;;;;;;;6.82;3.63;;;14.80;99.90;;;;;;5061846;28;20105;-75
2022/04/10 04:28:36;;;;;;;10.95;4.60;;;14.80;99.90;;;;;;5061360;28;20062;-75
2022/04/10 04:31:24;;;;;;;8.80;3.50;;;14.90;99.90;;;;;;5075663;28;20055;-75
2022/04/10 04:34:11;;;;;;;7.32;3.08;;;15.00;99.90;;;;;;5075881;28;20132;-76
2022/04/10 04:36:58;;;;;;;7.88;3.70;;;15.00;99.90;;;;;;5061775;28;20113;-75
2022/04/10 04:39:44;;;;;;;8.97;3.73;;;15.00;99.90;;;;;;5061646;28;20055;-76
2022/04/10 04:42:31;;;;;;;5.72;2.47;;;15.00;99.90;;;;;;5060908;28;20293;-76
2022/04/10 04:45:18;;;;;;;10.23;3.60;;;14.90;99.80;;;;;;5061621;28;20405;-75
2022/04/10 04:48:30;;;;;;;7.95;3.58;;;14.90;99.60;;;;;;5078541;28;20047;-76
2022/04/10 04:51:16;;;;;;;6.28;2.60;;;14.90;99.40;;;;;;5074967;28;20059;-75
2022/04/10 04:54:08;;;;;;;6.13;2.58;;;14.80;98.80;;;;;;5074982;28;20055;-75
2022/04/10 04:56:55;;;;;;;9.77;2.92;;;14.90;98.70;;;;;;5073298;28;20089;-75
2022/04/10 04:59:46;;;;;;;9.68;3.33;;;15.00;98.70;;;;;;5062086;28;20088;-75
2022/04/10 05:02:32;;;;;;;8.40;3.75;;;15.20;98.10;;;;;;5074906;28;20051;-76
2022/04/10 05:05:18;;;;;;;7.43;2.05;;;15.30;97.40;;;;;;5061763;28;20055;-75
2022/04/10 05:08:06;;;;;;;11.27;3.67;;;15.30;96.90;;;;;;5061756;28;20055;-75
2022/04/10 05:10:52;;;;;;;;;;;15.40;96.70;;;;;;5076027;28;20062;-75
2022/04/10 05:13:40;;;;;;;9.70;2.63;;;15.60;96.50;;;;;;5075353;28;19946;-76
2022/04/10 05:16:26;;;;;;;7.15;2.85;;;15.90;96.30;;;;;;5075015;28;20054;-75
2022/04/10 05:19:14;;;;;;;8.23;2.88;;;16.10;95.80;;;;;;5061398;28;20078;-75
2022/04/10 05:22:01;;;;;;;9.57;3.20;;;16.30;95.90;;;;;;5061057;28;20047;-75
2022/04/10 05:24:50;;;;;;;15.75;4.07;;;16.50;95.40;;;;;;5052900;28;20055;-75
2022/04/10 05:27:36;;;;;;;10.02;3.63;;;16.60;95.40;;;;;;5069709;28;20528;-75
2022/04/10 05:30:23;;;;;;;7.82;3.22;;;16.80;95.10;;;;;;5066711;28;20058;-76
2022/04/10 05:33:11;;;;;;;14.25;3.85;;;17.00;95.00;;;;;;5082125;28;20097;-75
2022/04/10 05:35:57;;;;;;;12.00;3.33;;;17.30;94.80;;;;;;5059529;28;20882;-75
2022/04/10 05:38:46;;;;;;;17.63;3.45;;;17.50;94.80;;;;;;5081456;28;20413;-75
2022/04/10 05:41:34;;;;;;;6.72;3.28;;;17.80;94.70;;;;;;5084845;28;20047;-76
2022/04/10 05:44:27;;;;;;;16.83;4.50;;;18.00;94.50;;;;;;5059391;28;20137;-76
2022/04/10 05:47:13;;;;;;;12.98;3.58;;;18.20;94.50;;;;;;5057169;28;20066;-76
2022/04/10 05:49:59;;;;;;;15.48;5.03;;;18.40;94.70;;;;;;4945407;28;20792;-76
2022/04/10 05:52:48;;;;;;;6.68;3.58;;;18.60;94.70;;;;;;5064004;28;20400;-75
2022/04/10 05:55:36;;;;;;;5.60;2.65;;;18.70;94.70;;;;;;5068210;28;20048;-77
2022/04/10 05:58:28;;;;;;;9.52;2.95;;;18.90;94.80;;;;;;5083282;28;20059;-75
2022/04/10 06:01:15;;;;;;;11.05;3.15;;;19.20;94.80;;;;;;5076826;28;20109;-76
2022/04/10 06:04:04;;;;;;;9.60;2.40;;;19.30;94.50;;;;;;5068016;28;20082;-75
2022/04/10 06:06:50;;;;;;;7.22;2.70;;;19.50;94.00;;;;;;5074632;28;20054;-76
2022/04/10 06:09:43;;;;;;;6.53;2.72;;;19.60;93.00;;;;;;5058535;28;20090;-75
2022/04/10 06:12:29;;;;;;;6.43;2.88;;;19.40;91.20;;;;;;5064404;28;20424;-76
2022/04/10 06:15:21;;;;;;;7.88;2.83;;;19.10;91.00;;;;;;5078506;28;20406;-75
2022/04/10 06:17:55;;;;;;;29.27;3.25;;;18.70;90.70;;;;;;5057971;28;20048;-77
2022/04/10 06:20:23;;;;;;;6.50;2.53;;;18.20;90.40;;;;;;4976307;28;20796;-73
2022/04/10 06:22:51;;;;;;;8.48;2.90;;;18.10;90.00;;;;;;4904651;28;20054;-77
2022/04/10 06:25:20;;;;;;;5.82;2.53;;;17.80;90.00;;;;;;5059793;28;20104;-77
2022/04/10 06:27:47;;;;;;;7.75;3.58;;;17.40;90.40;;;;;;5060730;28;20130;-75
2022/04/10 06:30:16;;;;;;;10.73;2.50;;;17.20;90.00;;;;;;5058834;28;20050;-76
2022/04/10 06:32:52;;;;;;;7.90;2.65;;;17.00;90.60;;;;;;5040597;28;20048;-75
2022/04/10 06:35:20;;;;;;;7.65;2.53;;;16.80;91.10;;;;;;5036483;28;20406;-75
2022/04/10 06:37:52;;;;;;;9.43;2.88;;;16.70;91.10;;;;;;5055362;28;20131;-75
2022/04/10 06:40:20;;;;;;;11.35;2.67;;;16.60;90.90;;;;;;5049489;28;20128;-76
2022/04/10 06:42:49;;;;;;;16.85;3.42;;;16.60;90.80;;;;;;5046248;28;20843;-74
2022/04/10 06:45:23;;;;;;;6.40;2.67;;;16.70;90.60;;;;;;5083955;28;20510;-74
2022/04/10 06:47:56;;;;;;;7.22;3.05;;;17.10;90.40;;;;;;5085960;28;20035;-74
2022/04/10 06:50:41;;;;;;;6.72;2.40;;;17.50;90.00;;;;;;5044606;28;20059;-74
2022/04/10 06:53:15;;;;;;;7.15;2.75;;;17.80;89.00;;;;;;5040316;28;20052;-74
2022/04/10 06:55:44;;;;;;;6.65;2.35;;;18.20;88.20;;;;;;5041889;28;20044;-75
2022/04/10 06:58:12;;;;;;;6.65;2.35;;;18.50;88.20;;;;;;5036412;28;20044;-74
2022/04/10 07:00:41;;;;;;;8.27;3.13;;;18.80;87.30;;;;;;5060354;28;20056;-74
2022/04/10 07:03:11;;;;;;;9.32;2.78;;;18.90;85.50;;;;;;5046719;28;20056;-74
2022/04/10 07:05:40;;;;;;;6.07;2.92;;;19.00;84.40;;;;;;5021817;28;20080;-74
2022/04/10 07:08:15;;;;;;;8.73;3.00;;;19.20;84.50;;;;;;5066050;28;20048;-75
2022/04/10 07:10:43;;;;;;;11.73;2.92;;;19.20;84.10;;;;;;5041583;28;20525;-75
2022/04/10 07:13:17;;;;;;;6.90;2.22;;;19.20;83.00;;;;;;5038595;28;20052;-75
2022/04/10 07:15:46;;;;;;;5.20;2.25;;;19.20;83.30;;;;;;5031886;28;20048;-75
2022/04/10 07:18:14;;;;;;;6.50;1.98;;;19.30;82.10;;;;;;5048869;28;20132;-74
2022/04/10 07:20:42;;;;;;;7.47;3.00;;;19.30;80.80;;;;;;5036832;28;20049;-74
2022/04/10 07:25:57;;;;;;;;;;;19.40;79.50;;;;;;5057796;28;20048;-74
2022/04/10 07:28:25;;;;;;;8.20;2.75;;;19.40;79.30;;;;;;5073815;28;19946;-75
2022/04/10 07:30:58;;;;;;;10.35;3.63;;;19.20;79.40;;;;;;5034847;28;20052;-74
2022/04/10 07:33:31;;;;;;;6.10;2.70;;;19.20;80.20;;;;;;5026921;28;20048;-75
2022/04/10 07:36:06;;;;;;;10.40;3.40;;;19.30;80.10;;;;;;5029910;28;20060;-76
2022/04/10 07:38:37;;;;;;;11.70;2.72;;;19.40;79.70;;;;;;5036946;28;20048;-76
2022/04/10 07:41:10;;;;;;;6.70;2.47;;;19.50;79.40;;;;;;5036101;28;20557;-75
2022/04/10 07:43:44;;;;;;;7.97;2.50;;;19.50;79.20;;;;;;5052796;28;20059;-75
2022/04/10 07:49:06;;;;;;;7.78;2.47;;;19.50;79.40;;;;;;5053591;28;20045;-75
2022/04/10 07:51:41;;;;;;;11.25;3.40;;;19.40;79.70;;;;;;5038255;28;20040;-75
2022/04/10 07:54:32;;;;;;;7.40;2.85;;;19.20;80.40;;;;;;5039098;28;20097;-75
2022/04/10 07:56:59;;;;;;;9.57;3.38;;;19.40;80.70;;;;;;5020044;28;20052;-77
2022/04/10 07:59:31;;;;;;;7.63;3.15;;;19.20;79.50;;;;;;5037009;28;20053;-75
2022/04/10 08:01:59;;;;;;;6.22;2.38;;;19.30;80.20;;;;;;5036376;28;20342;-74
2022/04/10 08:04:31;;;;;;;10.18;3.10;;;19.40;79.40;;;;;;5053312;28;20040;-76
2022/04/10 08:07:18;;;;;;;6.80;2.95;;;19.30;79.40;;;;;;5039505;28;20049;-74
2022/04/10 08:09:46;;;;;;;6.63;2.78;;;19.40;78.60;;;;;;5052852;28;20044;-75
2022/04/10 08:12:14;;;;;;;5.88;1.95;;;19.20;78.40;;;;;;5036649;28;20110;-75
2022/04/10 08:14:43;;;;;;;8.23;2.95;;;19.10;77.20;;;;;;5053146;28;20044;-75
2022/04/10 08:17:12;;;;;;;8.35;2.80;;;18.80;79.20;;;;;;5053484;28;20048;-75
2022/04/10 08:19:39;;;;;;;4.55;2.05;;;18.90;79.10;;;;;;5057948;28;20042;-75
2022/04/10 08:22:07;;;;;;;7.20;2.10;;;19.00;79.50;;;;;;5073005;28;20052;-75
2022/04/10 08:24:35;;;;;;;5.18;2.05;;;19.20;79.70;;;;;;5056245;28;20073;-76
2022/04/10 08:27:03;;;;;;;7.03;2.15;;;19.30;80.80;;;;;;5090792;28;20036;-75
2022/04/10 08:29:31;;;;;;;8.43;2.00;;;19.30;81.70;;;;;;5056837;28;20040;-76
2022/04/10 08:31:58;;;;;;;3.15;1.10;;;19.30;81.30;;;;;;5090506;28;20048;-75
2022/04/10 08:34:27;;;;;;;4.15;1.13;;;19.40;80.80;;;;;;5039978;28;20101;-75
2022/04/10 08:36:55;;;;;;;1.38;0.70;;;19.50;80.00;;;;;;5071916;28;20040;-75
2022/04/10 08:39:23;;;;;;;2.17;1.48;;;19.50;81.10;;;;;;5056427;28;20468;-76
2022/04/10 08:41:55;;;;;;;1.50;0.80;;;19.50;81.50;;;;;;5076139;28;20160;-75
2022/04/10 08:44:25;;;;;;;1.48;1.08;;;19.40;82.30;;;;;;5053133;28;20063;-75
2022/04/10 08:46:53;;;;;;;4.15;1.30;;;19.50;83.30;;;;;;5065364;28;20039;-76
2022/04/10 08:49:23;;;;;;;1.42;1.00;;;19.60;84.00;;;;;;5056190;28;20409;-73
2022/04/10 08:51:53;;;;;;;4.20;1.20;;;19.80;83.30;;;;;;5097360;28;20064;-73
2022/04/10 08:54:22;;;;;;;1.65;0.90;;;19.70;82.90;;;;;;5051687;28;20058;-72
2022/04/10 08:56:52;;;;;;;2.15;1.23;;;19.70;84.10;;;;;;5039625;28;20125;-73
2022/04/10 08:59:21;;;;;;;3.63;2.55;;;19.60;83.70;;;;;;5055604;28;20059;-73
2022/04/10 09:01:56;;;;;;;12.63;6.50;;;19.70;83.20;;;;;;5072726;28;20498;-71
2022/04/10 09:04:24;;;;;;;6.80;2.67;;;19.90;82.80;;;;;;5072510;28;20051;-71
2022/04/10 09:07:05;;;;;;;6.60;2.63;;;19.90;81.70;;;;;;5072693;28;20059;-71
2022/04/10 09:09:34;;;;;;;6.20;3.03;;;20.00;81.60;;;;;;5039838;28;20052;-73
2022/04/10 09:12:03;;;;;;;10.10;5.00;;;20.00;82.40;;;;;;5039374;28;20111;-73
2022/04/10 09:14:39;;;;;;;7.03;3.00;;;19.90;82.30;;;;;;5038518;28;20048;-72
2022/04/10 09:17:14;;;;;;;7.05;2.35;;;19.90;81.80;;;;;;5071587;28;20052;-73
2022/04/10 09:19:44;;;;;;;13.68;2.30;;;20.00;81.90;;;;;;5036143;28;20041;-71
2022/04/10 09:22:35;;;;;;;4.50;2.25;;;19.90;81.20;;;;;;5069421;28;20041;-72
2022/04/10 09:25:14;;;;;;;6.15;1.83;;;19.80;81.10;;;;;;5051485;28;20051;-72
2022/04/10 09:27:47;;;;;;;5.40;1.73;;;19.70;81.80;;;;;;5069251;28;20036;-72
2022/04/10 09:30:20;;;;;;;6.43;2.20;;;19.70;82.70;;;;;;5035355;28;20072;-73
2022/04/10 09:32:55;;;;;;;5.43;1.60;;;19.90;81.90;;;;;;5035015;28;20513;-72
2022/04/10 09:35:24;;;;;;;3.47;1.73;;;19.80;80.50;;;;;;5052198;28;20102;-74
2022/04/10 09:37:57;;;;;;;8.77;2.08;;;19.90;81.20;;;;;;5035286;28;20072;-73
2022/04/10 09:40:30;;;;;;;8.18;2.33;;;19.80;82.00;;;;;;5051421;28;20414;-72
2022/04/10 09:43:06;;;;;;;7.60;2.70;;;19.80;81.80;;;;;;5035243;28;20506;-74
2022/04/10 09:45:43;;;;;;;3.38;2.50;;;19.70;82.30;;;;;;5051796;28;20131;-73
2022/04/10 09:48:32;;;;;;;6.85;2.17;;;19.40;82.10;;;;;;5035509;28;20079;-72
2022/04/10 09:51:03;;;;;;;3.25;2.05;;;19.60;82.00;;;;;;5055095;28;20169;-73
2022/04/10 09:53:32;;;;;;;4.63;2.20;;;19.60;81.90;;;;;;5022721;28;20171;-74
2022/04/10 09:56:04;;;;;;;3.85;1.60;;;19.50;82.10;;;;;;5073099;28;20068;-71
2022/04/10 09:58:33;;;;;;;7.72;2.05;;;19.20;82.10;;;;;;5038620;28;20049;-72
2022/04/10 10:01:03;;;;;;;5.32;2.20;;;19.00;82.30;;;;;;5054661;28;20406;-73
2022/04/10 10:03:36;;;;;;;7.13;2.30;;;18.90;83.20;;;;;;5044973;28;20052;-71
2022/04/10 10:06:07;;;;;;;5.43;1.85;;;19.00;83.40;;;;;;5044699;28;20044;-74
2022/04/10 10:08:36;;;;;;;4.20;1.40;;;19.10;82.30;;;;;;5052937;28;20048;-72
2022/04/10 10:11:08;;;;;;;4.07;1.38;;;19.10;82.70;;;;;;5054567;28;20054;-72
2022/04/10 10:13:38;;;;;;;3.08;1.88;;;19.20;82.10;;;;;;5072644;28;20078;-72
2022/04/10 10:16:07;;;;;;;5.40;1.33;;;19.10;82.20;;;;;;5037069;28;20070;-73
2022/04/10 10:18:36;;;;;;;4.43;1.98;;;18.90;82.20;;;;;;5054477;28;20072;-71
2022/04/10 10:21:05;;;;;;;4.78;2.45;;;18.70;82.10;;;;;;5054596;28;20071;-72
2022/04/10 10:23:36;;;;;;;6.13;1.98;;;18.50;82.40;;;;;;5038284;28;20093;-73
2022/04/10 10:26:31;;;;;;;5.07;2.63;;;18.60;83.10;;;;;;5037025;28;20155;-75
2022/04/10 10:29:36;;;;;;;7.68;1.73;;;18.80;82.90;;;;;;5036230;28;20056;-74
2022/04/10 10:32:25;;;;;;;3.83;2.40;;;18.80;80.70;;;;;;5052929;28;20499;-72
2022/04/10 10:34:54;;;;;;;5.07;2.22;;;19.00;79.80;;;;;;5053985;28;20048;-73
2022/04/10 10:37:31;;;;;;;7.72;1.60;;;19.10;79.40;;;;;;5038138;28;20063;-73
2022/04/10 10:39:59;;;;;;;6.43;1.42;;;19.40;79.00;;;;;;5054720;28;20080;-73
2022/04/10 10:42:39;;;;;;;5.57;1.40;;;19.40;77.90;;;;;;5021233;28;20524;-73
2022/04/10 10:45:08;;;;;;;5.18;1.60;;;19.40;78.00;;;;;;5037703;28;20049;-75
2022/04/10 10:47:35;;;;;;;5.97;1.92;;;19.30;78.70;;;;;;5054792;28;20403;-73
2022/04/10 10:50:31;;;;;;;3.45;1.85;;;19.10;78.70;;;;;;5055029;28;20056;-72
2022/04/10 10:53:06;;;;;;;3.83;2.00;;;19.10;79.00;;;;;;5072386;28;20055;-72
2022/04/10 10:55:46;;;;;;;7.85;2.55;;;19.10;78.70;;;;;;5054813;28;20047;-72
2022/04/10 10:58:18;;;;;;;3.92;2.20;;;19.20;79.30;;;;;;5055248;28;20048;-72
2022/04/10 11:00:52;;;;;;;4.82;1.50;;;19.20;79.40;;;;;;5020976;28;20052;-72
2022/04/10 11:03:22;;;;;;;3.53;1.48;;;19.20;79.30;;;;;;5054709;28;20048;-73
2022/04/10 11:05:51;;;;;;;3.08;1.40;;;19.40;77.50;;;;;;5037667;28;20063;-73
2022/04/10 11:08:18;;;;;;;3.50;1.63;;;19.50;77.50;;;;;;5056764;28;20063;-72
2022/04/10 11:11:03;;;;;;;8.65;1.83;;;19.50;76.30;;;;;;5092647;28;20390;-78
2022/04/10 11:13:42;;;;;;;4.65;1.83;;;19.40;75.00;;;;;;5075450;28;20056;-73
2022/04/10 11:16:14;;;;;;;3.17;1.88;;;19.40;75.10;;;;;;5041429;28;20091;-72
2022/04/10 11:18:49;;;;;;;5.22;1.80;;;19.30;74.70;;;;;;5073880;28;20040;-72
2022/04/10 11:21:20;;;;;;;4.35;1.58;;;19.40;75.40;;;;;;5074534;28;20438;-73
2022/04/10 11:23:54;;;;;;;3.40;1.30;;;19.30;74.70;;;;;;5058689;28;20118;-72
2022/04/10 11:26:22;;;;;;;4.47;2.20;;;19.20;75.10;;;;;;5057601;28;20130;-74
2022/04/10 11:29:02;;;;;;;3.08;1.70;;;19.30;74.50;;;;;;5074105;28;20101;-73
2022/04/10 11:31:52;;;;;;;2.22;1.20;;;19.40;74.40;;;;;;5074028;28;20047;-72
2022/04/10 11:34:21;;;;;;;3.47;1.30;;;19.60;73.30;;;;;;5074623;28;20058;-73
2022/04/10 11:36:55;;;;;;;3.20;1.50;;;19.60;72.80;;;;;;5074238;28;20126;-72
2022/04/10 11:39:28;;;;;;;8.40;1.67;;;19.40;73.50;;;;;;5051011;28;20212;-72
2022/04/10 11:42:00;;;;;;;20.17;1.95;;;19.40;73.90;;;;;;5075968;28;20094;-73
2022/04/10 11:44:29;;;;;;;5.82;1.27;;;19.30;73.40;;;;;;5080105;28;20447;-72
2022/04/10 11:47:01;;;;;;;15.82;2.40;;;19.20;74.60;;;;;;5055817;28;20505;-72
2022/04/10 11:49:29;;;;;;;4.00;1.67;;;19.20;75.40;;;;;;5045622;28;20082;-73
2022/04/10 11:51:58;;;;;;;2.35;1.73;;;19.00;75.10;;;;;;5066088;28;20048;-72
2022/04/10 11:54:31;;;;;;;5.55;1.60;;;18.80;76.70;;;;;;5022503;28;20441;-73
2022/04/10 11:57:01;;;;;;;6.47;1.65;;;18.80;77.30;;;;;;5040813;28;20135;-71
2022/04/10 11:59:39;;;;;;;6.20;1.67;;;18.60;76.40;;;;;;5061755;28;20063;-72
2022/04/10 12:02:09;;;;;;;6.32;2.08;;;18.40;77.20;;;;;;5077325;28;20055;-73
2022/04/10 12:04:38;;;;;;;3.67;1.85;;;18.30;77.10;;;;;;5034988;28;20090;-77
2022/04/10 12:07:14;;;;;;;5.57;1.88;;;18.30;77.00;;;;;;5058701;28;20055;-72
2022/04/10 12:09:45;;;;;;;4.95;1.73;;;18.20;77.70;;;;;;5020786;28;20049;-73
2022/04/10 12:12:13;;;;;;;3.58;1.67;;;18.00;77.80;;;;;;5078138;28;20127;-73
2022/04/10 12:14:40;;;;;;;2.22;1.25;;;18.10;78.10;;;;;;5066424;28;20052;-72
2022/04/10 12:17:12;;;;;;;5.50;1.60;;;18.20;77.60;;;;;;5077550;28;20052;-73
2022/04/10 12:19:40;;;;;;;5.25;1.70;;;18.30;77.80;;;;;;5059055;28;20407;-72
2022/04/10 12:22:09;;;;;;;4.43;1.40;;;18.40;77.80;;;;;;5058722;28;20047;-72
2022/04/10 12:24:44;;;;;;;4.45;1.70;;;18.30;77.20;;;;;;5020883;28;20397;-71
2022/04/10 12:27:13;;;;;;;4.70;1.58;;;18.30;77.10;;;;;;5057860;28;20506;-73
2022/04/10 12:29:41;;;;;;;6.80;2.15;;;18.20;77.80;;;;;;5032498;28;20046;-73
2022/04/10 12:32:10;;;;;;;3.17;1.63;;;18.10;77.20;;;;;;5040621;28;20535;-76
2022/04/10 12:34:42;;;;;;;4.85;2.55;;;18.00;77.70;;;;;;5069302;28;20059;-72
2022/04/10 12:37:12;;;;;;;5.80;2.72;;;18.00;78.20;;;;;;5054647;28;20059;-73
2022/04/10 12:39:40;;;;;;;4.78;2.20;;;17.90;79.20;;;;;;5066773;28;20413;-74
2022/04/10 12:42:09;;;;;;;5.05;2.08;;;17.80;80.70;;;;;;5051042;28;20044;-72
2022/04/10 12:44:39;;;;;;;4.50;1.98;;;17.80;80.40;;;;;;5082357;28;20070;-73
2022/04/10 12:47:09;;;;;;;6.00;2.25;;;17.50;81.70;;;;;;5079156;28;20036;-72
2022/04/10 12:49:38;;;;;;;6.32;2.40;;;17.50;83.20;;;;;;5079637;28;20047;-73
2022/04/10 12:52:09;;;;;;;4.60;2.05;;;17.50;83.80;;;;;;5071052;28;20055;-73
2022/04/10 12:54:37;;;;;;;5.07;2.50;;;17.40;83.00;;;;;;5091793;28;20052;-72
2022/04/10 12:57:07;;;;;;;5.93;2.15;;;17.50;82.40;;;;;;5079841;28;20123;-73
2022/04/10 12:59:48;;;;;;;4.65;2.03;;;17.60;82.40;;;;;;5054705;28;20116;-70
2022/04/10 13:02:27;;;;;;;7.95;1.83;;;17.60;81.00;;;;;;5048037;28;20075;-71
2022/04/10 13:04:59;;;;;;;5.25;1.35;;;17.50;79.50;;;;;;5078418;28;20051;-71
2022/04/10 13:07:28;;;;;;;4.28;1.75;;;17.40;80.10;;;;;;5056336;28;20201;-71
2022/04/10 13:10:09;;;;;;;4.07;1.83;;;17.50;80.10;;;;;;5035066;28;20048;-75
2022/04/10 13:12:40;;;;;;;3.83;2.03;;;17.60;77.80;;;;;;5074651;28;20059;-72
2022/04/10 13:15:11;;;;;;;3.15;1.40;;;17.60;77.20;;;;;;5070802;28;20040;-72
2022/04/10 13:17:40;;;;;;;5.50;1.40;;;17.70;76.50;;;;;;5088571;28;20054;-72
2022/04/10 13:20:10;;;;;;;6.53;1.35;;;17.70;75.70;;;;;;5056326;28;20144;-72
2022/04/10 13:22:40;;;;;;;5.30;2.08;;;17.60;75.30;;;;;;5057636;28;20397;-71
2022/04/10 13:25:11;;;;;;;4.50;1.40;;;17.60;76.20;;;;;;5088457;28;20071;-70
2022/04/10 13:27:40;;;;;;;5.85;2.75;;;17.60;76.70;;;;;;5070184;28;20044;-76
2022/04/10 13:30:08;;;;;;;2.70;1.48;;;17.70;76.20;;;;;;5061669;28;20071;-71